Time;durP1;ratioP1;P1;durP2;ratioP2;P2;SDS_P1;SDS_P2;PMS_P1;PMS_P2;Temp;Humidity;BMP_temperature;BMP_pressure;BME280_temperature;BME280_humidity;BME280_pressure;Samples;Min_cycle;Max_cycle;Signal;HPM_P1;HPM_P2
2022/01/02 00:01:45;;;;;;;;;;;4.40;80.20;;;;;;4999516;28;20042;-69
2022/01/02 00:04:22;;;;;;;15.82;9.07;;;4.40;80.40;;;;;;4995054;28;20372;-68
2022/01/02 00:06:53;;;;;;;17.38;9.25;;;4.40;79.90;;;;;;4992997;28;20048;-69
2022/01/02 00:09:30;;;;;;;14.30;8.30;;;4.40;79.90;;;;;;5014626;28;20760;-69
2022/01/02 00:12:07;;;;;;;16.23;9.95;;;4.40;79.70;;;;;;4997203;28;20053;-68
2022/01/02 00:14:35;;;;;;;17.45;9.68;;;4.40;79.60;;;;;;4991759;28;20083;-69
2022/01/02 00:17:06;;;;;;;19.48;10.30;;;4.40;79.30;;;;;;4991944;28;20524;-68
2022/01/02 00:19:34;;;;;;;18.60;10.80;;;4.40;79.30;;;;;;4992456;28;20074;-69
2022/01/02 00:22:03;;;;;;;18.42;10.43;;;4.40;79.70;;;;;;4993735;28;20046;-68
2022/01/02 00:24:31;;;;;;;18.55;10.85;;;4.30;79.90;;;;;;4994416;28;20104;-69
2022/01/02 00:26:58;;;;;;;18.08;10.93;;;4.30;80.10;;;;;;4995998;28;20038;-68
2022/01/02 00:29:25;;;;;;;19.88;11.80;;;4.30;80.20;;;;;;4993127;28;20048;-69
2022/01/02 00:31:53;;;;;;;21.85;12.23;;;4.30;80.10;;;;;;4998316;28;20065;-68
2022/01/02 00:34:20;;;;;;;23.17;13.57;;;4.30;80.00;;;;;;4995631;28;20772;-68
2022/01/02 00:36:45;;;;;;;21.73;12.80;;;4.30;80.20;;;;;;4998551;28;20125;-69
2022/01/02 00:39:11;;;;;;;22.13;13.40;;;4.20;80.30;;;;;;4998053;28;20042;-67
2022/01/02 00:41:54;;;;;;;26.73;14.85;;;4.20;80.40;;;;;;4995539;28;20030;-69
2022/01/02 00:44:41;;;;;;;24.08;14.13;;;4.20;80.50;;;;;;4997484;28;20081;-68
2022/01/02 00:47:15;;;;;;;21.90;11.50;;;4.30;80.80;;;;;;4996352;28;20030;-68
2022/01/02 00:49:47;;;;;;;18.88;10.43;;;4.30;80.80;;;;;;4996463;28;20528;-68
2022/01/02 00:52:22;;;;;;;22.08;11.68;;;4.20;80.70;;;;;;4997891;28;20030;-68
2022/01/02 00:54:47;;;;;;;22.55;12.07;;;4.20;80.70;;;;;;4998214;28;20134;-68
2022/01/02 00:57:16;;;;;;;23.88;13.27;;;4.20;80.60;;;;;;5000098;28;20681;-69
2022/01/02 01:00:04;;;;;;;25.95;14.15;;;4.20;80.80;;;;;;4996363;28;20030;-68
2022/01/02 01:02:53;;;;;;;27.25;14.95;;;4.20;81.50;;;;;;4995307;28;20038;-67
2022/01/02 01:05:26;;;;;;;27.73;13.77;;;4.20;82.00;;;;;;4996731;28;20619;-68
2022/01/02 01:07:54;;;;;;;25.30;13.40;;;4.20;81.70;;;;;;4996505;28;20843;-68
2022/01/02 01:10:21;;;;;;;25.20;13.00;;;4.20;81.80;;;;;;4996389;28;20421;-68
2022/01/02 01:12:52;;;;;;;22.30;12.13;;;4.20;81.70;;;;;;4996526;28;20046;-69
2022/01/02 01:15:20;;;;;;;24.52;12.50;;;4.20;81.60;;;;;;4995051;28;20022;-69
2022/01/02 01:17:47;;;;;;;30.58;15.13;;;4.20;81.40;;;;;;4995432;28;20104;-69
2022/01/02 01:20:14;;;;;;;23.98;13.07;;;4.20;81.30;;;;;;5000233;28;20050;-70
2022/01/02 01:22:44;;;;;;;22.55;12.98;;;4.20;81.30;;;;;;5008202;28;20088;-69
2022/01/02 01:25:15;;;;;;;23.25;12.15;;;4.20;81.30;;;;;;5006291;28;20587;-68
2022/01/02 01:27:41;;;;;;;24.52;12.38;;;4.30;81.30;;;;;;5001710;28;20501;-68
2022/01/02 01:30:08;;;;;;;22.30;13.30;;;4.20;81.00;;;;;;4994037;28;20100;-69
2022/01/02 01:32:33;;;;;;;32.33;16.10;;;4.30;80.80;;;;;;4996082;28;20064;-69
2022/01/02 01:34:59;;;;;;;30.05;15.90;;;4.20;80.70;;;;;;4995854;28;20399;-68
2022/01/02 01:37:25;;;;;;;28.33;13.93;;;4.20;80.90;;;;;;4994668;28;20749;-68
2022/01/02 01:39:50;;;;;;;29.67;13.15;;;4.20;81.00;;;;;;4995564;28;20030;-69
2022/01/02 01:42:27;;;;;;;21.58;11.40;;;4.10;80.80;;;;;;4998833;28;20061;-69
2022/01/02 01:45:28;;;;;;;20.90;11.88;;;4.10;80.70;;;;;;4994997;28;20104;-68
2022/01/02 01:47:38;;;;;;;21.35;12.02;;;4.10;80.70;;;;;;4997708;28;20168;-69
2022/01/02 01:50:04;;;;;;;23.30;12.57;;;4.10;80.80;;;;;;4997858;28;20094;-69
2022/01/02 01:52:30;;;;;;;26.63;12.80;;;4.10;80.70;;;;;;4993842;28;20526;-68
2022/01/02 01:54:56;;;;;;;24.45;12.45;;;4.10;80.60;;;;;;4994794;28;20038;-68
2022/01/02 01:57:21;;;;;;;22.83;12.32;;;4.00;80.70;;;;;;4994438;28;20034;-69
2022/01/02 01:59:48;;;;;;;27.58;14.43;;;4.00;80.70;;;;;;4997208;28;20096;-69
2022/01/02 02:02:15;;;;;;;25.63;13.10;;;4.00;80.60;;;;;;4996997;28;20421;-68
2022/01/02 02:04:41;;;;;;;23.95;12.45;;;4.00;80.90;;;;;;4997890;28;20104;-67
2022/01/02 02:07:07;;;;;;;22.13;11.45;;;3.90;81.30;;;;;;4995165;28;21038;-68
2022/01/02 02:09:48;;;;;;;22.50;12.82;;;3.90;81.30;;;;;;4994794;28;20092;-69
2022/01/02 02:12:14;;;;;;;23.75;12.18;;;3.90;81.40;;;;;;4995684;28;20034;-68
2022/01/02 02:14:40;;;;;;;20.75;11.93;;;3.90;81.30;;;;;;4995414;28;20048;-69
2022/01/02 02:17:06;;;;;;;28.30;14.13;;;3.90;81.20;;;;;;4994048;28;20042;-68
2022/01/02 02:19:32;;;;;;;25.45;14.30;;;3.90;81.30;;;;;;4998422;28;20123;-69
2022/01/02 02:21:57;;;;;;;25.23;13.68;;;3.90;81.30;;;;;;4993526;28;20092;-68
2022/01/02 02:24:23;;;;;;;23.75;13.23;;;3.90;81.30;;;;;;4995482;28;20405;-68
2022/01/02 02:26:49;;;;;;;22.75;12.98;;;3.90;81.30;;;;;;4993662;28;20180;-68
2022/01/02 02:29:15;;;;;;;24.00;13.23;;;3.90;82.00;;;;;;4995756;28;20033;-68
2022/01/02 02:31:41;;;;;;;23.67;13.32;;;3.90;81.20;;;;;;4995388;28;20490;-68
2022/01/02 02:34:07;;;;;;;25.60;12.93;;;3.90;81.10;;;;;;4995581;28;20133;-69
2022/01/02 02:36:33;;;;;;;22.58;12.25;;;3.90;81.10;;;;;;4997053;28;20402;-68
2022/01/02 02:38:58;;;;;;;24.63;13.82;;;3.90;81.30;;;;;;4993834;28;20033;-68
2022/01/02 02:41:30;;;;;;;25.60;14.18;;;3.90;81.40;;;;;;4993763;28;20056;-68
2022/01/02 02:44:04;;;;;;;29.73;15.77;;;3.90;81.20;;;;;;4995465;28;20049;-69
2022/01/02 02:49:13;;;;;;;35.08;17.10;;;3.90;81.30;;;;;;4995307;28;20867;-69
2022/01/02 02:54:08;;;;;;;35.00;17.95;;;3.90;81.40;;;;;;4996361;28;20065;-68
2022/01/02 02:59:37;;;;;;;33.70;17.73;;;3.90;81.60;;;;;;4983120;28;20038;-68
2022/01/02 03:02:03;;;;;;;37.03;19.95;;;4.00;82.60;;;;;;4993370;28;20104;-68
2022/01/02 03:04:29;;;;;;;38.03;18.95;;;4.00;82.80;;;;;;4996962;28;20808;-69
2022/01/02 03:06:55;;;;;;;40.08;19.48;;;4.10;83.90;;;;;;4997632;28;20112;-68
2022/01/02 03:09:39;;;;;;;36.45;19.33;;;4.10;83.30;;;;;;4995386;28;20108;-68
2022/01/02 03:12:06;;;;;;;27.33;15.45;;;4.10;83.30;;;;;;4995317;28;20034;-68
2022/01/02 03:14:32;;;;;;;26.98;15.23;;;4.10;83.00;;;;;;4996780;28;20069;-69
2022/01/02 03:16:58;;;;;;;25.52;14.88;;;4.20;82.50;;;;;;4994023;28;20513;-68
2022/01/02 03:19:24;;;;;;;25.00;14.15;;;4.20;82.20;;;;;;4991922;28;20042;-69
2022/01/02 03:21:50;;;;;;;26.52;14.65;;;4.20;82.00;;;;;;4995075;28;20099;-69
2022/01/02 03:24:15;;;;;;;29.90;15.77;;;4.20;81.80;;;;;;4995539;28;20039;-68
2022/01/02 03:26:41;;;;;;;27.15;15.02;;;4.20;81.40;;;;;;4995248;28;20539;-69
2022/01/02 03:29:07;;;;;;;24.95;13.93;;;4.20;81.40;;;;;;4996044;28;20034;-68
2022/01/02 03:31:32;;;;;;;24.73;13.43;;;4.10;81.30;;;;;;4996276;28;20034;-69
2022/01/02 03:33:58;;;;;;;26.05;14.10;;;4.10;81.30;;;;;;4994211;28;20030;-67
2022/01/02 03:36:24;;;;;;;24.45;13.75;;;4.00;81.30;;;;;;4996016;28;20038;-68
2022/01/02 03:38:49;;;;;;;22.35;12.32;;;4.00;81.10;;;;;;4996651;28;20038;-68
2022/01/02 03:41:15;;;;;;;22.33;12.68;;;4.00;81.20;;;;;;5005014;28;20041;-69
2022/01/02 03:43:41;;;;;;;22.40;12.77;;;4.00;81.30;;;;;;5004734;28;20030;-69
2022/01/02 03:46:06;;;;;;;24.02;14.07;;;4.00;81.10;;;;;;5005384;28;20030;-69
2022/01/02 03:48:33;;;;;;;30.10;15.48;;;4.00;81.10;;;;;;5003744;28;20030;-69
2022/01/02 03:50:59;;;;;;;26.17;14.88;;;3.90;81.00;;;;;;5003693;28;20504;-69
2022/01/02 03:53:25;;;;;;;29.58;16.88;;;4.00;80.80;;;;;;5004257;28;20604;-69
2022/01/02 03:55:51;;;;;;;28.20;15.18;;;3.90;80.90;;;;;;4996162;28;20029;-68
2022/01/02 03:58:16;;;;;;;28.52;15.35;;;3.90;81.30;;;;;;4991403;28;22545;-68
2022/01/02 04:00:43;;;;;;;27.85;15.15;;;3.80;81.40;;;;;;4995168;28;20045;-69
2022/01/02 04:03:08;;;;;;;28.65;14.82;;;3.80;81.40;;;;;;4994411;28;20543;-69
2022/01/02 04:05:34;;;;;;;24.27;14.38;;;3.80;81.20;;;;;;4996249;28;20042;-69
2022/01/02 04:08:00;;;;;;;27.65;14.70;;;3.80;81.10;;;;;;4998626;28;20046;-69
2022/01/02 04:10:25;;;;;;;23.92;14.13;;;3.70;81.10;;;;;;4995218;28;20034;-69
2022/01/02 04:12:51;;;;;;;29.23;14.77;;;3.70;81.10;;;;;;4998680;28;20046;-68
2022/01/02 04:15:17;;;;;;;22.10;13.60;;;3.70;81.00;;;;;;4996981;28;20505;-69
2022/01/02 04:17:43;;;;;;;24.23;13.70;;;3.70;80.90;;;;;;5001805;28;20037;-68
2022/01/02 04:20:11;;;;;;;28.27;14.48;;;3.70;80.80;;;;;;4996808;28;20042;-68
2022/01/02 04:22:37;;;;;;;26.33;14.65;;;3.60;80.90;;;;;;4997137;28;20038;-67
2022/01/02 04:25:04;;;;;;;29.02;14.85;;;3.60;80.90;;;;;;4997427;28;20400;-68
2022/01/02 04:27:30;;;;;;;25.48;14.85;;;3.60;81.00;;;;;;4996420;28;20039;-68
2022/01/02 04:29:55;;;;;;;27.45;14.05;;;3.50;80.90;;;;;;4996400;28;20042;-68
2022/01/02 04:32:21;;;;;;;25.05;14.27;;;3.50;81.10;;;;;;4997904;28;20661;-68
2022/01/02 04:34:47;;;;;;;26.65;14.23;;;3.50;81.30;;;;;;4995426;28;20033;-68
2022/01/02 04:37:13;;;;;;;24.15;13.93;;;3.50;81.40;;;;;;4997465;28;20034;-69
2022/01/02 04:39:40;;;;;;;27.38;14.48;;;3.50;81.30;;;;;;4995487;28;20030;-68
2022/01/02 04:42:06;;;;;;;25.20;14.60;;;3.50;81.50;;;;;;4995540;28;20038;-69
2022/01/02 04:44:32;;;;;;;24.67;13.95;;;3.50;81.60;;;;;;4996320;28;20481;-68
2022/01/02 04:46:58;;;;;;;23.73;14.07;;;3.40;81.50;;;;;;4998425;28;20425;-69
2022/01/02 04:49:24;;;;;;;26.35;14.00;;;3.50;81.70;;;;;;4995514;28;20057;-69
2022/01/02 04:51:52;;;;;;;26.90;14.77;;;3.50;81.80;;;;;;4995924;28;20452;-69
2022/01/02 04:54:18;;;;;;;28.60;14.40;;;3.50;81.80;;;;;;4996106;28;20065;-69
2022/01/02 04:56:43;;;;;;;25.55;14.20;;;3.50;81.70;;;;;;4996043;28;20158;-69
2022/01/02 04:59:09;;;;;;;26.30;14.40;;;3.50;81.60;;;;;;4993017;28;20069;-68
2022/01/02 05:01:34;;;;;;;25.85;14.63;;;3.50;81.50;;;;;;4994796;28;20027;-69
2022/01/02 05:04:00;;;;;;;28.00;15.75;;;3.60;81.90;;;;;;4998484;28;20054;-68
2022/01/02 05:06:26;;;;;;;31.23;16.70;;;3.60;82.10;;;;;;4995368;28;20080;-69
2022/01/02 05:08:51;;;;;;;30.77;16.40;;;3.60;82.20;;;;;;4994720;28;20054;-69
2022/01/02 05:11:17;;;;;;;31.50;17.65;;;3.60;82.50;;;;;;4994844;28;20778;-69
2022/01/02 05:13:43;;;;;;;33.80;17.08;;;3.70;82.60;;;;;;4995068;28;20451;-68
2022/01/02 05:16:09;;;;;;;32.45;16.83;;;3.70;82.50;;;;;;4995948;28;20030;-68
2022/01/02 05:18:35;;;;;;;28.15;15.55;;;3.70;82.30;;;;;;4999012;28;20034;-67
2022/01/02 05:21:01;;;;;;;27.35;15.27;;;3.70;82.00;;;;;;4955067;28;1127278;-68
2022/01/02 05:23:29;;;;;;;29.52;15.40;;;3.70;82.00;;;;;;4997638;28;20169;-68
2022/01/02 05:25:54;;;;;;;30.08;15.25;;;3.70;81.80;;;;;;4995860;28;20030;-67
2022/01/02 05:28:20;;;;;;;28.38;15.57;;;3.70;81.60;;;;;;4996712;28;20049;-68
2022/01/02 05:30:46;;;;;;;29.33;16.10;;;3.70;82.40;;;;;;4995366;28;20121;-68
2022/01/02 05:33:11;;;;;;;32.40;16.67;;;3.70;81.60;;;;;;4996751;28;20041;-69
2022/01/02 05:35:37;;;;;;;32.67;17.45;;;3.70;81.50;;;;;;4999472;28;20033;-69
2022/01/02 05:38:03;;;;;;;34.22;16.58;;;3.60;81.30;;;;;;4996548;28;20456;-68
2022/01/02 05:40:31;;;;;;;34.17;17.02;;;3.60;81.10;;;;;;4996948;28;20034;-69
2022/01/02 05:42:58;;;;;;;31.48;17.27;;;3.60;81.00;;;;;;4995617;28;20042;-68
2022/01/02 05:45:24;;;;;;;31.48;16.25;;;3.60;81.20;;;;;;4995849;28;20504;-69
2022/01/02 05:47:49;;;;;;;33.97;17.65;;;3.50;81.40;;;;;;4996381;28;20041;-69
2022/01/02 05:50:15;;;;;;;36.42;16.75;;;3.50;81.50;;;;;;4998326;28;20134;-68
2022/01/02 05:52:40;;;;;;;33.42;16.83;;;3.50;81.60;;;;;;4997013;28;20026;-68
2022/01/02 05:55:06;;;;;;;35.63;17.95;;;3.50;81.80;;;;;;4997339;28;20034;-68
2022/01/02 05:57:32;;;;;;;54.13;25.77;;;3.50;82.00;;;;;;4994687;28;20026;-69
2022/01/02 05:59:58;;;;;;;34.35;18.08;;;3.50;81.80;;;;;;4996088;28;20030;-68
2022/01/02 06:02:24;;;;;;;32.08;17.75;;;3.40;81.80;;;;;;4996970;28;20033;-68
2022/01/02 06:04:49;;;;;;;31.67;16.33;;;3.50;82.60;;;;;;4997320;28;20026;-69
2022/01/02 06:07:15;;;;;;;31.38;16.60;;;3.50;83.20;;;;;;5005265;28;20041;-69
2022/01/02 06:09:41;;;;;;;36.70;18.70;;;3.50;83.20;;;;;;5006768;28;20030;-69
2022/01/02 06:12:08;;;;;;;36.17;18.40;;;3.50;83.10;;;;;;5003775;28;20519;-68
2022/01/02 06:14:33;;;;;;;34.08;17.20;;;3.50;82.80;;;;;;5005626;28;20490;-69
2022/01/02 06:16:59;;;;;;;34.10;18.02;;;3.60;82.60;;;;;;5007893;28;20119;-69
2022/01/02 06:19:25;;;;;;;36.92;17.70;;;3.60;82.50;;;;;;5004934;28;20030;-69
2022/01/02 06:21:51;;;;;;;31.38;16.92;;;3.60;82.20;;;;;;5006232;28;20065;-69
2022/01/02 06:24:16;;;;;;;38.92;19.38;;;3.50;82.00;;;;;;5005430;28;20034;-69
2022/01/02 06:26:42;;;;;;;39.83;19.27;;;3.60;82.00;;;;;;5007001;28;20030;-68
2022/01/02 06:29:08;;;;;;;38.40;18.95;;;3.60;81.80;;;;;;5006259;28;20034;-68
2022/01/02 06:31:33;;;;;;;37.10;18.48;;;3.50;81.80;;;;;;5005880;28;20603;-69
2022/01/02 06:33:59;;;;;;;34.30;17.25;;;3.50;81.70;;;;;;5005984;28;20044;-69
2022/01/02 06:36:24;;;;;;;27.50;15.80;;;3.50;81.70;;;;;;5000645;28;20704;-68
2022/01/02 06:38:50;;;;;;;28.38;15.50;;;3.50;81.60;;;;;;4993866;28;20513;-68
2022/01/02 06:41:16;;;;;;;32.03;16.25;;;3.50;81.80;;;;;;4997577;28;20042;-69
2022/01/02 06:43:43;;;;;;;28.05;15.63;;;3.50;82.00;;;;;;4996228;28;20088;-68
2022/01/02 06:46:09;;;;;;;28.70;15.65;;;3.50;82.10;;;;;;4994806;28;20034;-68
2022/01/02 06:48:36;;;;;;;27.80;16.15;;;3.60;82.30;;;;;;4993871;28;20076;-66
2022/01/02 06:51:01;;;;;;;27.17;16.35;;;3.60;82.50;;;;;;5000191;28;20042;-69
2022/01/02 06:53:27;;;;;;;30.67;16.35;;;3.60;82.50;;;;;;4995616;28;20041;-68
2022/01/02 06:55:53;;;;;;;30.15;16.75;;;3.60;82.50;;;;;;4993393;28;20080;-69
2022/01/02 06:58:18;;;;;;;29.98;17.10;;;3.60;82.90;;;;;;4994973;28;20061;-68
2022/01/02 07:00:44;;;;;;;30.52;16.90;;;3.60;83.00;;;;;;4994121;28;20030;-70
2022/01/02 07:03:10;;;;;;;31.05;17.67;;;3.70;83.10;;;;;;4990258;28;20042;-69
2022/01/02 07:05:36;;;;;;;31.42;17.13;;;3.70;83.10;;;;;;4995480;28;20041;-69
2022/01/02 07:08:02;;;;;;;33.20;17.83;;;3.70;83.20;;;;;;4998412;28;20038;-68
2022/01/02 07:10:28;;;;;;;30.88;16.80;;;3.70;83.20;;;;;;4993971;28;20028;-68
2022/01/02 07:12:53;;;;;;;27.02;16.13;;;3.70;83.00;;;;;;4997241;28;20052;-69
2022/01/02 07:15:19;;;;;;;28.80;16.38;;;3.80;83.00;;;;;;4994587;28;20444;-68
2022/01/02 07:17:45;;;;;;;26.67;15.68;;;3.80;82.80;;;;;;4994042;28;20053;-69
2022/01/02 07:20:11;;;;;;;26.75;15.63;;;3.80;82.70;;;;;;4993390;28;20034;-69
2022/01/02 07:22:40;;;;;;;28.13;16.02;;;3.80;83.40;;;;;;4997901;28;20066;-68
2022/01/02 07:25:06;;;;;;;29.95;17.02;;;3.80;82.40;;;;;;4996823;28;20036;-68
2022/01/02 07:27:32;;;;;;;30.70;16.73;;;3.80;82.60;;;;;;4992649;28;20034;-68
2022/01/02 07:29:58;;;;;;;26.60;15.82;;;3.80;82.80;;;;;;4995311;28;20508;-69
2022/01/02 07:32:25;;;;;;;25.45;14.77;;;3.80;82.80;;;;;;4995509;28;20144;-69
2022/01/02 07:34:50;;;;;;;26.95;15.27;;;3.90;82.80;;;;;;5000027;28;20030;-68
2022/01/02 07:37:17;;;;;;;27.08;14.82;;;3.90;83.00;;;;;;4995059;28;20485;-69
2022/01/02 07:39:42;;;;;;;26.23;15.10;;;3.90;83.00;;;;;;4996303;28;20085;-68
2022/01/02 07:42:08;;;;;;;23.30;13.10;;;3.80;83.10;;;;;;4997356;28;20125;-69
2022/01/02 07:44:36;;;;;;;21.25;12.65;;;3.90;83.30;;;;;;4993568;28;20034;-69
2022/01/02 07:47:03;;;;;;;22.95;12.57;;;4.00;83.70;;;;;;4994619;28;20065;-68
2022/01/02 07:49:28;;;;;;;23.27;12.65;;;4.00;83.90;;;;;;4993747;28;20501;-69
2022/01/02 07:51:54;;;;;;;19.50;11.57;;;4.10;84.20;;;;;;5012547;28;20038;-69
2022/01/02 07:54:19;;;;;;;16.33;10.43;;;4.30;84.60;;;;;;4997386;28;20050;-69
2022/01/02 07:56:45;;;;;;;19.02;11.68;;;4.40;84.60;;;;;;4996168;28;20042;-68
2022/01/02 07:59:12;;;;;;;20.15;11.82;;;4.50;84.50;;;;;;4994365;28;20647;-68
2022/01/02 08:01:38;;;;;;;18.67;11.13;;;4.60;84.40;;;;;;4995038;28;20513;-69
2022/01/02 08:04:03;;;;;;;23.85;13.07;;;4.60;84.20;;;;;;4996932;28;20052;-69
2022/01/02 08:06:29;;;;;;;20.50;12.10;;;4.70;84.00;;;;;;4992206;28;20034;-69
2022/01/02 08:08:54;;;;;;;19.38;11.70;;;4.80;84.00;;;;;;4999847;28;20255;-69
2022/01/02 08:11:20;;;;;;;30.05;14.02;;;4.80;83.80;;;;;;4994164;28;20497;-68
2022/01/02 08:13:46;;;;;;;32.97;16.85;;;4.90;83.60;;;;;;4994841;28;20120;-69
2022/01/02 08:16:12;;;;;;;33.25;17.40;;;4.90;83.30;;;;;;4993477;28;20042;-69
2022/01/02 08:18:38;;;;;;;29.73;15.32;;;4.90;83.00;;;;;;4993643;28;20030;-68
2022/01/02 08:21:04;;;;;;;29.50;15.90;;;5.00;83.00;;;;;;4995653;28;20045;-68
2022/01/02 08:23:30;;;;;;;25.58;13.75;;;5.00;83.10;;;;;;4996305;28;20070;-68
2022/01/02 08:25:56;;;;;;;22.52;13.38;;;5.00;83.20;;;;;;4995062;28;20112;-68
2022/01/02 08:28:21;;;;;;;32.63;17.58;;;5.00;83.40;;;;;;4994756;28;20092;-68
2022/01/02 08:30:47;;;;;;;30.15;16.30;;;5.00;83.40;;;;;;4995080;28;20120;-68
2022/01/02 08:33:14;;;;;;;32.42;17.73;;;5.10;83.30;;;;;;4994767;28;20033;-69
2022/01/02 08:35:44;;;;;;;31.02;18.08;;;5.00;83.20;;;;;;4994679;28;20034;-68
2022/01/02 08:38:11;;;;;;;29.38;16.77;;;5.10;83.30;;;;;;5000145;28;20037;-68
2022/01/02 08:40:38;;;;;;;31.15;17.73;;;5.10;83.40;;;;;;4995253;28;20048;-68
2022/01/02 08:43:05;;;;;;;32.08;18.08;;;5.20;83.60;;;;;;4995677;28;20061;-67
2022/01/02 08:45:31;;;;;;;30.70;18.20;;;5.20;83.70;;;;;;4993911;28;20553;-68
2022/01/02 08:47:56;;;;;;;25.45;15.55;;;5.30;83.90;;;;;;4993649;28;20044;-66
2022/01/02 08:50:22;;;;;;;24.40;14.32;;;5.30;85.00;;;;;;4994309;28;20049;-68
2022/01/02 08:52:48;;;;;;;20.02;12.93;;;5.40;84.50;;;;;;4997529;28;20452;-67
2022/01/02 08:55:15;;;;;;;24.52;13.95;;;5.50;84.60;;;;;;5000319;28;20038;-68
2022/01/02 08:57:41;;;;;;;22.00;13.32;;;5.50;84.60;;;;;;4997902;28;21714;-68
2022/01/02 09:00:07;;;;;;;23.13;14.50;;;5.70;84.70;;;;;;4996924;28;20026;-68
2022/01/02 09:02:33;;;;;;;18.88;12.32;;;5.80;84.70;;;;;;4997589;28;20050;-67
2022/01/02 09:04:58;;;;;;;20.13;11.93;;;5.90;84.60;;;;;;4998209;28;20096;-68
2022/01/02 09:07:24;;;;;;;18.27;11.63;;;6.00;84.50;;;;;;4997413;28;20567;-67
2022/01/02 09:09:49;;;;;;;18.67;11.70;;;6.10;84.40;;;;;;4999187;28;20048;-68
2022/01/02 09:12:15;;;;;;;18.08;11.50;;;6.20;84.20;;;;;;4998924;28;20038;-67
2022/01/02 09:14:42;;;;;;;18.50;11.65;;;6.30;83.90;;;;;;4997071;28;20069;-68
2022/01/02 09:17:08;;;;;;;22.73;11.82;;;6.40;83.50;;;;;;4997623;28;20029;-69
2022/01/02 09:19:34;;;;;;;19.85;12.60;;;6.50;83.30;;;;;;4998169;28;20026;-68
2022/01/02 09:22:00;;;;;;;17.77;11.25;;;6.60;83.20;;;;;;4996800;28;20409;-68
2022/01/02 09:24:25;;;;;;;17.17;11.05;;;6.60;83.00;;;;;;4999100;28;20386;-69
2022/01/02 09:26:51;;;;;;;17.35;11.35;;;6.80;82.90;;;;;;4997203;28;20146;-68
2022/01/02 09:29:17;;;;;;;17.73;11.75;;;6.80;82.70;;;;;;5014555;28;20121;-68
2022/01/02 09:31:43;;;;;;;18.40;11.20;;;6.90;82.60;;;;;;4997362;28;20038;-67
2022/01/02 09:34:08;;;;;;;18.75;10.82;;;6.90;82.40;;;;;;4997331;28;20117;-68
2022/01/02 09:36:34;;;;;;;16.15;10.80;;;7.00;82.30;;;;;;4996348;28;20839;-67
2022/01/02 09:39:00;;;;;;;18.85;12.50;;;7.10;82.10;;;;;;4996256;28;20046;-68
2022/01/02 09:41:26;;;;;;;20.45;12.90;;;7.10;82.00;;;;;;4997717;28;20041;-68
2022/01/02 09:43:51;;;;;;;19.48;11.75;;;7.20;82.00;;;;;;4995272;28;20046;-67
2022/01/02 09:46:26;;;;;;;17.23;11.35;;;7.20;82.00;;;;;;4997008;28;20062;-68
2022/01/02 09:48:52;;;;;;;;;;;7.30;81.90;;;;;;5001348;28;20066;-68
2022/01/02 09:51:27;;;;;;;17.05;10.27;;;7.40;81.90;;;;;;4998411;28;19960;-67
2022/01/02 09:53:54;;;;;;;17.50;10.90;;;7.50;81.70;;;;;;4999769;28;20046;-67
2022/01/02 09:56:20;;;;;;;17.20;10.65;;;7.50;81.70;;;;;;4998447;28;20040;-68
2022/01/02 09:58:46;;;;;;;16.42;9.95;;;7.70;81.90;;;;;;4997753;28;20075;-67
2022/01/02 10:01:18;;;;;;;17.10;10.32;;;7.80;81.80;;;;;;4998569;28;20061;-68
2022/01/02 10:03:47;;;;;;;15.25;10.45;;;7.80;81.60;;;;;;4997221;28;20038;-68
2022/01/02 10:06:13;;;;;;;16.42;11.00;;;7.90;81.50;;;;;;4997978;28;20046;-68
2022/01/02 10:08:39;;;;;;;17.10;11.95;;;8.00;81.30;;;;;;4997643;28;20061;-68
2022/01/02 10:11:22;;;;;;;17.08;11.32;;;8.10;81.00;;;;;;4997540;28;20505;-67
2022/01/02 10:13:55;;;;;;;15.75;10.52;;;8.20;80.20;;;;;;4997708;28;20131;-67
2022/01/02 10:16:36;;;;;;;15.73;10.27;;;8.30;80.20;;;;;;4996760;28;20409;-67
2022/01/02 10:19:20;;;;;;;18.23;11.68;;;8.40;79.80;;;;;;4993812;28;20049;-67
2022/01/02 10:21:56;;;;;;;17.63;11.70;;;8.50;79.40;;;;;;4995803;28;20036;-68
2022/01/02 10:24:23;;;;;;;17.65;11.43;;;8.50;79.30;;;;;;4996207;28;20038;-67
2022/01/02 10:27:13;;;;;;;16.60;10.80;;;8.60;79.60;;;;;;4999811;28;20037;-68
2022/01/02 10:29:44;;;;;;;16.13;10.07;;;8.60;79.10;;;;;;4997092;28;20049;-67
2022/01/02 10:32:35;;;;;;;13.55;9.85;;;8.70;79.40;;;;;;4995566;28;20034;-67
2022/01/02 10:35:12;;;;;;;15.52;10.68;;;8.80;79.20;;;;;;4996931;28;20096;-68
2022/01/02 10:38:01;;;;;;;16.02;10.30;;;8.90;79.40;;;;;;4993983;28;20410;-68
2022/01/02 10:40:40;;;;;;;14.77;10.20;;;8.90;79.40;;;;;;4994061;28;20042;-68
2022/01/02 10:43:09;;;;;;;15.55;9.95;;;9.10;79.40;;;;;;4995518;28;20404;-68
2022/01/02 10:45:44;;;;;;;15.07;10.10;;;9.10;79.40;;;;;;4996213;28;20034;-68
2022/01/02 10:48:15;;;;;;;13.30;9.55;;;9.20;78.90;;;;;;4996284;28;20475;-67
2022/01/02 10:51:10;;;;;;;13.77;9.65;;;9.30;78.90;;;;;;4996573;28;20157;-68
2022/01/02 10:53:37;;;;;;;14.82;9.85;;;9.50;78.20;;;;;;4996231;28;20072;-68
2022/01/02 10:56:05;;;;;;;12.75;8.88;;;9.60;78.70;;;;;;4993104;28;20129;-68
2022/01/02 10:58:33;;;;;;;12.82;8.82;;;9.70;78.60;;;;;;5003050;28;20447;-67
2022/01/02 11:01:05;;;;;;;11.70;7.80;;;9.80;78.40;;;;;;5003873;28;20397;-68
2022/01/02 11:03:31;;;;;;;9.77;7.22;;;10.00;77.40;;;;;;5004821;28;20031;-68
2022/01/02 11:06:05;;;;;;;10.70;7.47;;;10.10;77.50;;;;;;5006054;28;20034;-67
2022/01/02 11:08:34;;;;;;;11.00;7.63;;;10.20;77.00;;;;;;5003728;28;20030;-68
2022/01/02 11:11:00;;;;;;;11.40;7.97;;;10.40;77.10;;;;;;5003315;28;20034;-67
2022/01/02 11:13:26;;;;;;;11.02;7.30;;;10.50;76.70;;;;;;5006014;28;20100;-68
2022/01/02 11:15:53;;;;;;;10.38;7.10;;;10.70;76.10;;;;;;5006488;28;20489;-67
2022/01/02 11:18:19;;;;;;;9.55;7.10;;;10.80;75.50;;;;;;5006789;28;20042;-68
2022/01/02 11:20:45;;;;;;;12.50;7.68;;;10.90;75.30;;;;;;5005822;28;20116;-68
2022/01/02 11:23:30;;;;;;;12.00;7.78;;;11.00;75.20;;;;;;5007052;28;20041;-67
2022/01/02 11:26:01;;;;;;;8.77;6.85;;;11.10;73.70;;;;;;5006258;28;20465;-68
2022/01/02 11:28:40;;;;;;;8.10;6.43;;;11.20;74.40;;;;;;5006084;28;20046;-68
2022/01/02 11:31:09;;;;;;;7.90;5.93;;;11.20;72.70;;;;;;5006651;28;20382;-68
2022/01/02 11:33:39;;;;;;;10.07;6.32;;;11.30;73.20;;;;;;5006867;28;20034;-68
2022/01/02 11:36:31;;;;;;;8.35;6.20;;;11.30;72.80;;;;;;5006715;28;20272;-68
2022/01/02 11:39:05;;;;;;;8.07;6.32;;;11.40;70.90;;;;;;5001918;28;20080;-68
2022/01/02 11:41:54;;;;;;;8.38;5.78;;;11.40;72.10;;;;;;5005999;28;20081;-68
2022/01/02 11:44:49;;;;;;;7.57;5.80;;;11.40;70.80;;;;;;4998127;28;20076;-68
2022/01/02 11:47:41;;;;;;;7.28;5.93;;;11.40;70.60;;;;;;5005905;28;20452;-68
2022/01/02 11:50:28;;;;;;;7.43;5.88;;;11.40;70.70;;;;;;5006121;28;20037;-68
2022/01/02 11:53:12;;;;;;;6.82;5.68;;;11.40;70.60;;;;;;5004777;28;20033;-68
2022/01/02 11:55:39;;;;;;;6.97;5.43;;;11.40;70.40;;;;;;5002213;28;20034;-67
2022/01/02 11:58:05;;;;;;;7.22;5.15;;;11.50;71.50;;;;;;5005410;28;20037;-68
2022/01/02 12:00:45;;;;;;;6.78;5.25;;;11.50;71.30;;;;;;5004466;28;20081;-68
2022/01/02 12:03:42;;;;;;;7.68;4.93;;;11.50;70.60;;;;;;5002521;28;20113;-68
2022/01/02 12:06:33;;;;;;;8.85;4.43;;;11.40;69.30;;;;;;5004529;28;20405;-68
2022/01/02 12:08:59;;;;;;;5.38;4.32;;;11.40;69.50;;;;;;5002231;28;20488;-68
2022/01/02 12:11:31;;;;;;;6.85;5.45;;;11.40;71.60;;;;;;5003191;28;20057;-68
2022/01/02 12:14:16;;;;;;;6.63;5.35;;;11.40;70.40;;;;;;5000669;28;20034;-68
2022/01/02 12:16:48;;;;;;;7.32;5.63;;;11.40;70.40;;;;;;5004421;28;20553;-68
2022/01/02 12:19:14;;;;;;;6.72;5.68;;;11.40;70.90;;;;;;5003471;28;20109;-68
2022/01/02 12:22:15;;;;;;;6.40;5.18;;;11.40;70.90;;;;;;5004804;28;20145;-68
2022/01/02 12:24:42;;;;;;;7.93;5.07;;;11.40;69.80;;;;;;5004955;28;20030;-67
2022/01/02 12:27:17;;;;;;;7.78;5.53;;;11.30;70.60;;;;;;5007033;28;20022;-68
2022/01/02 12:29:43;;;;;;;5.40;4.60;;;11.30;69.90;;;;;;5009213;28;20034;-69
2022/01/02 12:32:10;;;;;;;6.28;5.13;;;11.20;70.40;;;;;;5008258;28;20038;-67
2022/01/02 12:34:36;;;;;;;4.80;3.92;;;11.20;70.70;;;;;;5006277;28;20034;-68
2022/01/02 12:37:03;;;;;;;3.67;3.20;;;11.20;70.40;;;;;;5007418;28;20126;-68
2022/01/02 12:39:34;;;;;;;3.40;2.78;;;11.30;70.20;;;;;;5007044;28;20034;-68
2022/01/02 12:42:09;;;;;;;3.13;2.60;;;11.30;68.70;;;;;;5009513;28;20053;-68
2022/01/02 12:44:37;;;;;;;3.42;2.50;;;11.30;68.80;;;;;;5007911;28;20042;-69
2022/01/02 12:47:05;;;;;;;3.00;2.50;;;11.40;68.60;;;;;;5002412;28;20394;-68
2022/01/02 12:49:36;;;;;;;3.20;2.83;;;11.40;68.60;;;;;;5008411;28;20030;-69
2022/01/02 12:52:10;;;;;;;3.00;2.50;;;11.50;68.30;;;;;;5008984;28;20092;-68
2022/01/02 12:54:38;;;;;;;3.22;2.40;;;11.60;67.30;;;;;;5007168;28;20037;-69